AirNav   Pilot Hours Calculator
 
 1257 users online  

1GE7 Hay Field Airport
Madison, Georgia, USA

GOING TO MADISON?


FAA INFORMATION EFFECTIVE 04 NOVEMBER 2021

Location

FAA Identifier: 1GE7
Lat/Long: 33-31-02.0000N 083-26-23.0000W
33-31.033333N 083-26.383333W
33.5172222,-83.4397222
(estimated)
Elevation: 650 ft. / 198 m (estimated)
Variation: 04W (1995)
From city: 5 miles SE of MADISON, GA
Time zone: UTC -4 (UTC -5 during Standard Time)
Zip code: 30650

Airport Operations

Airport use: Private use. Permission required prior to landing
Activation date: 07/1999
Control tower: no
ARTCC: ATLANTA CENTER
FSS: MACON FLIGHT SERVICE STATION
Attendance: UNATNDD
Wind indicator: yes
Segmented circle: no

Airport Communications

WX AWOS-3 at 3J7 (16 nm E): 124.525 (706-453-0017)

Nearby radio navigation aids

VOR radial/distance  VOR name  Freq  Var
AHNr193/26.5ATHENS VOR/DME109.6000E

 
NDB name  Hdg/Dist  Freq  Var  ID
ALCOVY115/18.437003WVOF ...- --- ..-.
CULVR331/26.038004WUMB ..- -- -...
BARROW COUNTY168/26.240405WBMW -... -- .--

Airport Services

Runway Information

Runway 12/30

Dimensions: 3000 x 50 ft. / 914 x 15 m
Surface: turf
RUNWAY 12  RUNWAY 30
Traffic pattern: leftleft
Obstructions: 50 ft. trees, 1600 ft. from runway50 ft. trees, 1000 ft. from runway

Airport Ownership and Management from official FAA records

Ownership: Privately-owned
Owner: VISSCHER FARMS, LLC.
3390 EATON RD.
MADISON, GA 30650
Phone 706-342-2784
Manager: PAUL J. VISSCHER
3390 EATONTON RD.
MADISON, GA 30650
Phone (770) 380-2914

Additional Remarks

FOR CD CTC ATLANTA APCH AT 678-364-6131, WHEN APCH CLSD CTC ATLANTA ARTCC AT 770-210-7692.

Instrument Procedures

There are no published instrument procedures at 1GE7.

Some nearby airports with instrument procedures:

52A - Madison Municipal Airport (6 nm N)
3J7 - Greene County Regional Airport (16 nm E)
D73 - Cy Nunnally Memorial Airport (20 nm NW)
KCVC - Covington Municipal Airport (21 nm W)
KMLJ - Baldwin County Regional Airport (24 nm SE)
 
Loc | Ops | Rwys | IFR | FBO | Links
Com | Nav | Svcs | Stats | Notes
Area around 1GE7 (Hay Field Airport)
 
Road maps at: MapQuest Bing Google
 
Aerial photo
No photo
 
Sectional chart

 
Airport distance calculator
Flying to Hay Field Airport? Find the distance to fly.

From to 1GE7

Sunrise and sunset
Times for 28-Nov-2021
 Local
(UTC-5)
 Zulu
(UTC)
Morning civil twilight06:5111:51
Sunrise07:1812:18
Sunset17:2522:25
Evening civil twilight17:5222:52

Current date and time
Zulu (UTC)  28-Nov-2021 21:53:36
Local (UTC-5)  28-Nov-2021 16:53:36
 
METAR
K3J7 
16nm E 
282135Z AUTO 24004KT 10SM CLR 13/01 A2994 RMK AO2
KD73 
20nm NW 
282135Z AUTO 30003KT 10SM CLR 13/01 A2995 RMK AO2 T01260010
KCVC 
22nm W 
282139Z AUTO 26003KT 10SM CLR 13/01 A2995 RMK AO2
KMLJ 
24nm SE 
282135Z AUTO 24003KT 10SM CLR 14/03 A2999 RMK AO2
KAHN 
27nm N 
282051Z 23005KT 10SM CLR 15/01 A2992 RMK AO2 SLP134 T01500006 56012
KWDR 
30nm N 
282135Z AUTO 25004KT 10SM CLR 13/00 A2996 RMK AO2
TAF
KAHN 
27nm N 
281738Z 2818/2918 28006KT P6SM BKN250 FM290000 29006KT P6SM FEW250 FM291500 02004KT P6SM SKC FM291700 33004KT P6SM SKC
NOTAMs
Click for the latest NOTAMs
NOTAMs are issued by the DoD/FAA and will open in a separate window not controlled by AirNav.

 

 
 

Would you like to see your business listed on this page?

 If your business provides an interesting product or service to pilots, flight crews, aircraft, or users of the Hay Field Airport, you should consider listing it here.  To start the listing process, click on the button below
 
Add a business
 

Other Pages about Hay Field Airport

Update a link
 
Copyright © AirNav, LLC. All rights reserved. Privacy Policy  Contact